Madison, IL (62060)

8:30 AM CDT on May 05, 2015 (GMT -0500)
EAST GRANITE | | Change Station
CLOSE
Current Station
Personal Weather Station
Location: Granite City, IL
Elevation: 423 ft
Nearby Weather Stations

Elev 423 ft 38.70 °N, 90.13 °W | Updated 1 minute ago

Mostly Cloudy
Mostly Cloudy
69.8 °F
Feels Like 69.8 °F
N
0.0
Wind Variable Wind from SW

Today
High -- | Low -- °F
--% Chance of Precip.
Yesterday
High -- | Low -- °F
Precip. -- in
5:58 AM 7:56 PM
Full, 98% visible
Pressure 30.18 in
Visibility 10.0 miles
Clouds Mostly Cloudy 8500 ft
Dew Point 58 °F
Humidity 67%
Rainfall 0.00 in
Snow Depth Not available.
UV 1 out of 12
Pollen 8.10 out of 12
Air Quality Not available.
Flu Activity Local Activity
METAR KCPS 051253Z 16003KT 10SM BKN085 19/13 A3019 RMK AO2 SLP219 T01940128

More Conditions Fewer Conditions

Pressure 30.18 in
Visibility 10.0 miles
Clouds Mostly Cloudy 8500 ft
Dew Point 58 °F
Humidity 67%
Rainfall 0.00 in
Snow Depth Not available.
UV 1 out of 12
Pollen 8.10 out of 12
Air Quality Not available.
Flu Activity Local Activity
METAR KCPS 051253Z 16003KT 10SM BKN085 19/13 A3019 RMK AO2 SLP219 T01940128

More Conditions Fewer Conditions

Nepal has a long way to go to dig out and rebuild from a devastating earthquake. We have teamed up with several charities and organizations to make contributing to the relief effort as easy as possible.
How you can help: Portlight Strategies | Red Cross

10-Day Weather Forecast

Almanac

Astronomy

May. 05, 2015 Rise Set
Actual Time
Civil Twilight
Nautical Twilight
Astronomical Twilight
Moon
Length of Visible Light
Length of Day
Tomorrow will be .
, % of the Moon is Illuminated

Today's Extremes

State Highs State Lows

Community

WunderPhotos

Upload Photos

1,818,884 photos uploaded!

WunderBlogs® & News

Nearby

Air Quality

  Air Quality AQ Index Pollutant
Not available.

Snow Depth

Station Depth Elevation

Earthquake Activity

City Distance Mag. Time & Date
Minimum magnitude displayed is 2.5.

Coastal Water Temperatures

Place Temperature

Stations

Nearby Weather Stations

Station Location Temp. Windchill Dew Point Humidity Wind Precip. Elev Updated Type